createdAt,value
2022-11-29T00:00:11.266Z,26
2022-11-29T00:01:11.247Z,31
2022-11-29T00:02:11.515Z,28
2022-11-29T00:03:11.331Z,25
2022-11-29T00:05:11.263Z,32
2022-11-29T00:06:11.269Z,29
2022-11-29T00:07:11.270Z,28
2022-11-29T00:08:11.260Z,26
2022-11-29T00:09:11.258Z,26
2022-11-29T00:11:11.251Z,28
2022-11-29T00:12:11.249Z,26
2022-11-29T00:13:11.258Z,24
2022-11-29T00:14:11.292Z,29
2022-11-29T00:15:11.256Z,25
2022-11-29T00:16:11.341Z,28
2022-11-29T00:17:11.262Z,31
2022-11-29T00:18:11.268Z,26
2022-11-29T00:19:11.250Z,28
2022-11-29T00:20:11.275Z,31
2022-11-29T00:22:11.248Z,27
2022-11-29T00:23:11.260Z,29
2022-11-29T00:24:11.259Z,29
2022-11-29T00:25:11.275Z,28
2022-11-29T00:26:11.257Z,27
2022-11-29T00:27:11.259Z,30
2022-11-29T00:28:11.252Z,29
2022-11-29T00:29:11.271Z,30
2022-11-29T00:30:11.302Z,29
2022-11-29T00:31:11.318Z,29
2022-11-29T00:32:11.281Z,31
2022-11-29T00:33:11.272Z,28
2022-11-29T00:34:11.667Z,29
2022-11-29T00:35:11.273Z,31
2022-11-29T00:36:11.274Z,26
2022-11-29T00:37:11.282Z,31
2022-11-29T00:38:11.257Z,27
2022-11-29T00:39:11.265Z,29
2022-11-29T00:40:11.288Z,26
2022-11-29T00:41:11.289Z,29
2022-11-29T00:42:11.273Z,24
2022-11-29T00:43:11.260Z,29
2022-11-29T00:44:16.776Z,23
2022-11-29T00:45:11.303Z,28
2022-11-29T00:46:11.331Z,27
2022-11-29T00:47:11.252Z,33
2022-11-29T00:48:11.274Z,27
2022-11-29T00:49:11.285Z,29
2022-11-29T00:50:11.260Z,27
2022-11-29T00:51:11.258Z,27
2022-11-29T00:52:11.290Z,26
2022-11-29T00:53:11.303Z,25
2022-11-29T00:54:11.265Z,25
2022-11-29T00:55:11.267Z,26
2022-11-29T00:56:11.254Z,24
2022-11-29T00:57:11.320Z,28
2022-11-29T00:58:11.266Z,25
2022-11-29T00:59:11.275Z,25
2022-11-29T01:00:11.277Z,28
2022-11-29T01:01:11.338Z,28
2022-11-29T01:02:11.394Z,28
2022-11-29T01:03:11.263Z,29
2022-11-29T01:04:11.269Z,27
2022-11-29T01:05:11.268Z,28
2022-11-29T01:06:11.279Z,30
2022-11-29T01:07:11.286Z,31
2022-11-29T01:08:11.288Z,27
2022-11-29T01:09:11.282Z,29
2022-11-29T01:10:11.282Z,31
2022-11-29T01:11:11.282Z,28
2022-11-29T01:12:11.282Z,27
2022-11-29T01:13:11.309Z,31
2022-11-29T01:14:11.335Z,27
2022-11-29T01:15:11.288Z,27
2022-11-29T01:16:11.319Z,34
2022-11-29T01:17:11.274Z,30
2022-11-29T01:18:11.290Z,29
2022-11-29T01:19:11.276Z,28
2022-11-29T01:20:11.271Z,28
2022-11-29T01:22:11.280Z,27
2022-11-29T01:23:11.271Z,34
2022-11-29T01:24:11.276Z,32
2022-11-29T01:25:11.273Z,31
2022-11-29T01:26:11.268Z,29
2022-11-29T01:27:11.293Z,34
2022-11-29T01:28:11.290Z,29
2022-11-29T01:29:11.291Z,33
2022-11-29T01:30:11.290Z,32
2022-11-29T01:31:11.421Z,31
2022-11-29T01:32:11.291Z,29
2022-11-29T01:33:11.292Z,34
2022-11-29T01:34:11.280Z,31
2022-11-29T01:35:11.275Z,30
2022-11-29T01:36:11.279Z,29
2022-11-29T01:37:11.268Z,32
2022-11-29T01:38:11.281Z,31
2022-11-29T01:39:11.311Z,33
2022-11-29T01:40:11.290Z,37
2022-11-29T01:41:11.276Z,35
2022-11-29T01:42:11.274Z,35
2022-11-29T01:43:11.274Z,39
2022-11-29T01:44:11.281Z,38
2022-11-29T01:45:11.291Z,40
2022-11-29T01:46:11.397Z,43
2022-11-29T01:47:11.331Z,38
2022-11-29T01:48:11.279Z,45
2022-11-29T01:49:11.277Z,46
2022-11-29T01:50:11.303Z,46
2022-11-29T01:51:11.302Z,43
2022-11-29T01:52:11.292Z,41
2022-11-29T01:53:11.300Z,41
2022-11-29T01:54:11.285Z,42
2022-11-29T01:55:11.284Z,41
2022-11-29T01:56:11.392Z,43
2022-11-29T01:57:11.293Z,46
2022-11-29T01:58:11.282Z,40
2022-11-29T01:59:11.286Z,41
2022-11-29T02:00:11.306Z,42
2022-11-29T02:01:11.323Z,47
2022-11-29T02:02:11.326Z,47
2022-11-29T02:03:11.289Z,43
2022-11-29T02:04:11.304Z,43
2022-11-29T02:05:11.286Z,45
2022-11-29T02:06:11.277Z,46
2022-11-29T02:07:11.297Z,47
2022-11-29T02:08:11.310Z,43
2022-11-29T02:10:11.286Z,47
2022-11-29T02:11:11.306Z,44
2022-11-29T02:12:11.316Z,51
2022-11-29T02:13:11.291Z,44
2022-11-29T02:14:11.284Z,47
2022-11-29T02:15:11.333Z,44
2022-11-29T02:16:11.355Z,45
2022-11-29T02:17:11.298Z,40
2022-11-29T02:18:11.312Z,40
2022-11-29T02:19:11.279Z,43
2022-11-29T02:20:11.316Z,39
2022-11-29T02:21:11.307Z,45
2022-11-29T02:22:11.288Z,43
2022-11-29T02:23:11.292Z,46
2022-11-29T02:24:11.300Z,47
2022-11-29T02:25:11.319Z,47
2022-11-29T02:26:11.297Z,43
2022-11-29T02:27:11.307Z,46
2022-11-29T02:28:11.309Z,44
2022-11-29T02:29:11.290Z,45
2022-11-29T02:30:11.319Z,44
2022-11-29T02:31:11.379Z,51
2022-11-29T02:32:11.289Z,45
2022-11-29T02:33:11.313Z,51
2022-11-29T02:34:11.309Z,43
2022-11-29T02:35:11.301Z,45
2022-11-29T02:36:11.294Z,44
2022-11-29T02:37:11.822Z,50
2022-11-29T02:38:11.290Z,56
2022-11-29T02:40:11.297Z,50
2022-11-29T02:41:11.304Z,43
2022-11-29T02:42:11.294Z,50
2022-11-29T02:43:11.295Z,49
2022-11-29T02:44:11.295Z,47
2022-11-29T02:45:11.295Z,42
2022-11-29T02:46:11.768Z,58
2022-11-29T02:47:11.306Z,50
2022-11-29T02:48:11.322Z,52
2022-11-29T02:49:11.340Z,49
2022-11-29T02:50:11.311Z,45
2022-11-29T02:51:11.313Z,51
2022-11-29T02:52:11.313Z,47
2022-11-29T02:53:11.325Z,46
2022-11-29T02:54:11.362Z,46
2022-11-29T02:55:11.329Z,45
2022-11-29T02:56:11.314Z,42
2022-11-29T02:58:11.314Z,47
2022-11-29T02:59:11.295Z,48
2022-11-29T03:00:11.293Z,47
2022-11-29T03:01:11.344Z,44
2022-11-29T03:02:11.383Z,41
2022-11-29T03:03:11.301Z,47
2022-11-29T03:04:11.298Z,44
2022-11-29T03:05:11.330Z,44
2022-11-29T03:06:11.316Z,49
2022-11-29T03:07:11.304Z,54
2022-11-29T03:08:11.320Z,44
2022-11-29T03:09:11.317Z,42
2022-11-29T03:10:11.302Z,43
2022-11-29T03:11:11.309Z,46
2022-11-29T03:12:11.318Z,49
2022-11-29T03:13:11.329Z,44
2022-11-29T03:14:11.326Z,43
2022-11-29T03:15:11.324Z,49
2022-11-29T03:16:11.381Z,42
2022-11-29T03:17:11.331Z,38
2022-11-29T03:18:11.333Z,39
2022-11-29T03:19:11.327Z,41
2022-11-29T03:20:11.349Z,37
2022-11-29T03:21:11.320Z,42
2022-11-29T03:22:11.326Z,41
2022-11-29T03:23:11.308Z,46
2022-11-29T03:24:11.317Z,44
2022-11-29T03:25:11.318Z,41
2022-11-29T03:26:11.303Z,41
2022-11-29T03:27:11.306Z,39
2022-11-29T03:28:11.311Z,41
2022-11-29T03:29:11.299Z,38
2022-11-29T03:30:11.305Z,35
2022-11-29T03:31:11.328Z,46
2022-11-29T03:32:11.305Z,42
2022-11-29T03:33:11.313Z,38
2022-11-29T03:34:11.302Z,39
2022-11-29T03:35:11.331Z,36
2022-11-29T03:36:11.324Z,42
2022-11-29T03:37:11.309Z,38
2022-11-29T03:38:11.314Z,42
2022-11-29T03:39:11.321Z,46
2022-11-29T03:40:11.305Z,33
2022-11-29T03:41:11.310Z,38
2022-11-29T03:42:11.307Z,38
2022-11-29T03:43:11.339Z,38
2022-11-29T03:44:11.312Z,41
2022-11-29T03:45:11.319Z,41
2022-11-29T03:46:11.386Z,34
2022-11-29T03:47:11.314Z,37
2022-11-29T03:48:11.315Z,46
2022-11-29T03:49:11.313Z,36
2022-11-29T03:50:11.310Z,40
2022-11-29T03:51:11.342Z,38
2022-11-29T03:52:11.344Z,38
2022-11-29T03:53:11.326Z,36
2022-11-29T03:54:11.328Z,34
2022-11-29T03:55:11.318Z,39
2022-11-29T03:56:11.334Z,34
2022-11-29T03:57:11.318Z,39
2022-11-29T03:58:11.359Z,42
2022-11-29T03:59:11.340Z,35
2022-11-29T04:00:11.339Z,37
2022-11-29T04:01:11.396Z,38
2022-11-29T04:02:11.315Z,33
2022-11-29T04:03:11.326Z,34
2022-11-29T04:04:11.330Z,35
2022-11-29T04:05:11.330Z,34
2022-11-29T04:06:11.320Z,32
2022-11-29T04:07:11.310Z,33
2022-11-29T04:08:11.335Z,35
2022-11-29T04:09:11.395Z,35
2022-11-29T04:10:11.338Z,32
2022-11-29T04:11:11.333Z,35
2022-11-29T04:12:11.325Z,47
2022-11-29T04:13:11.363Z,38
2022-11-29T04:14:11.403Z,38
2022-11-29T04:15:15.337Z,32
2022-11-29T04:16:11.438Z,31
2022-11-29T04:17:11.605Z,33
2022-11-29T04:18:11.337Z,33
2022-11-29T04:19:11.340Z,35
2022-11-29T04:20:11.331Z,37
2022-11-29T04:21:11.318Z,40
2022-11-29T04:22:11.372Z,42
2022-11-29T04:23:11.343Z,32
2022-11-29T04:24:11.332Z,28
2022-11-29T04:25:11.319Z,30
2022-11-29T04:26:11.353Z,42
2022-11-29T04:27:11.327Z,32
2022-11-29T04:28:11.324Z,34
2022-11-29T04:29:11.338Z,34
2022-11-29T04:30:11.348Z,32
2022-11-29T04:31:11.409Z,35
2022-11-29T04:32:11.341Z,30
2022-11-29T04:33:11.339Z,34
2022-11-29T04:34:11.340Z,27
2022-11-29T04:35:11.335Z,31
2022-11-29T04:36:11.339Z,29
2022-11-29T04:37:11.340Z,31
2022-11-29T04:38:11.343Z,31
2022-11-29T04:39:11.341Z,31
2022-11-29T04:40:11.339Z,25
2022-11-29T04:41:11.337Z,29
2022-11-29T04:42:11.323Z,26
2022-11-29T04:43:11.336Z,29
2022-11-29T04:44:11.333Z,30
2022-11-29T04:45:11.341Z,26
2022-11-29T04:46:11.373Z,31
2022-11-29T04:47:11.339Z,27
2022-11-29T04:48:11.347Z,23
2022-11-29T04:49:11.352Z,25
2022-11-29T04:50:11.351Z,21
2022-11-29T04:51:11.329Z,24
2022-11-29T04:52:11.326Z,29
2022-11-29T04:53:11.361Z,25
2022-11-29T04:54:11.345Z,26
2022-11-29T04:55:11.393Z,24
2022-11-29T04:56:11.338Z,23
2022-11-29T04:57:11.350Z,17
2022-11-29T04:58:11.351Z,28
2022-11-29T04:59:11.338Z,20
2022-11-29T05:00:11.359Z,22
2022-11-29T05:01:11.409Z,28
2022-11-29T05:02:11.356Z,20
2022-11-29T05:03:11.336Z,21
2022-11-29T05:04:11.344Z,22
2022-11-29T05:05:11.335Z,23
2022-11-29T05:07:11.359Z,20
2022-11-29T05:08:11.342Z,23
2022-11-29T05:10:11.343Z,21
2022-11-29T05:11:11.350Z,23
2022-11-29T05:12:11.352Z,22
2022-11-29T05:13:11.332Z,17
2022-11-29T05:14:11.356Z,21
2022-11-29T05:16:11.470Z,15
2022-11-29T05:17:11.345Z,18
2022-11-29T05:18:11.355Z,18
2022-11-29T05:19:11.366Z,19
2022-11-29T05:20:11.355Z,21
2022-11-29T05:21:11.360Z,18
2022-11-29T05:22:11.352Z,19
2022-11-29T05:23:11.360Z,21
2022-11-29T05:24:11.373Z,18
2022-11-29T05:25:11.367Z,19
2022-11-29T05:26:11.355Z,18
2022-11-29T05:27:11.358Z,20
2022-11-29T05:28:11.330Z,19
2022-11-29T05:29:11.414Z,20
2022-11-29T05:30:11.354Z,19
2022-11-29T05:31:11.434Z,21
2022-11-29T05:32:11.341Z,17
2022-11-29T05:33:11.362Z,15
2022-11-29T05:34:11.355Z,23
2022-11-29T05:35:11.347Z,19
2022-11-29T05:36:11.341Z,18
2022-11-29T05:37:11.346Z,18
2022-11-29T05:38:11.350Z,16
2022-11-29T05:39:11.349Z,19
2022-11-29T05:40:11.364Z,20
2022-11-29T05:41:11.349Z,19
2022-11-29T05:42:11.361Z,24
2022-11-29T05:43:11.348Z,21
2022-11-29T05:44:11.345Z,26
2022-11-29T05:45:11.352Z,25
2022-11-29T05:46:11.395Z,26
2022-11-29T05:47:11.358Z,19
2022-11-29T05:48:11.364Z,26
2022-11-29T05:49:11.345Z,24
2022-11-29T05:50:11.356Z,26
2022-11-29T05:51:11.345Z,26
2022-11-29T05:52:11.355Z,27
2022-11-29T05:53:11.358Z,28
2022-11-29T05:54:11.366Z,35
2022-11-29T05:55:11.391Z,31
2022-11-29T05:56:11.356Z,29
2022-11-29T05:57:11.368Z,33
2022-11-29T05:58:11.349Z,29
2022-11-29T05:59:11.347Z,30
2022-11-29T06:00:11.365Z,34
2022-11-29T06:01:11.371Z,39
2022-11-29T06:02:11.444Z,30
2022-11-29T06:03:11.428Z,28
2022-11-29T06:04:14.754Z,29
2022-11-29T06:05:11.357Z,31
2022-11-29T06:06:11.363Z,34
2022-11-29T06:07:11.362Z,32
2022-11-29T06:08:11.380Z,31
2022-11-29T06:09:11.393Z,30
2022-11-29T06:10:11.363Z,31
2022-11-29T06:11:11.359Z,35
2022-11-29T06:12:11.364Z,34
2022-11-29T06:13:11.368Z,36
2022-11-29T06:14:11.368Z,31
2022-11-29T06:15:11.350Z,32
2022-11-29T06:16:11.421Z,32
2022-11-29T06:17:11.382Z,28
2022-11-29T06:18:11.361Z,35
2022-11-29T06:19:11.366Z,33
2022-11-29T06:20:11.420Z,32
2022-11-29T06:21:11.387Z,30
2022-11-29T06:22:11.368Z,35
2022-11-29T06:23:11.360Z,33
2022-11-29T06:24:11.355Z,33
2022-11-29T06:25:11.421Z,33
2022-11-29T06:26:11.393Z,31
2022-11-29T06:27:11.415Z,31
2022-11-29T06:28:11.385Z,36
2022-11-29T06:29:11.386Z,31
2022-11-29T06:30:11.396Z,30
2022-11-29T06:31:11.480Z,33
2022-11-29T06:33:11.383Z,35
2022-11-29T06:34:11.409Z,37
2022-11-29T06:35:11.369Z,33
2022-11-29T06:36:11.384Z,36
2022-11-29T06:37:11.364Z,30
2022-11-29T06:39:11.404Z,31
2022-11-29T06:40:11.373Z,29
2022-11-29T06:41:11.394Z,35
2022-11-29T06:42:11.391Z,34
2022-11-29T06:43:11.372Z,33
2022-11-29T06:44:11.380Z,31
2022-11-29T06:45:11.396Z,35
2022-11-29T06:46:11.464Z,36
2022-11-29T06:47:11.426Z,30
2022-11-29T06:48:11.372Z,40
2022-11-29T06:49:11.375Z,36
2022-11-29T06:50:11.369Z,34
2022-11-29T06:51:11.391Z,7
2022-11-29T06:52:12.177Z,10
2022-11-29T06:53:11.389Z,22
2022-11-29T06:54:11.364Z,32
2022-11-29T06:55:11.381Z,32
2022-11-29T06:56:11.382Z,30
2022-11-29T06:57:11.399Z,32
2022-11-29T06:58:11.394Z,28
2022-11-29T06:59:11.373Z,30
2022-11-29T07:00:11.381Z,33
2022-11-29T07:01:11.463Z,28
2022-11-29T07:02:11.492Z,29
2022-11-29T07:03:11.415Z,34
2022-11-29T07:04:11.379Z,27
2022-11-29T07:05:11.370Z,33
2022-11-29T07:06:11.369Z,30
2022-11-29T07:07:11.385Z,29
2022-11-29T07:08:11.367Z,27
2022-11-29T07:09:11.370Z,31
2022-11-29T07:10:14.838Z,32
2022-11-29T07:11:11.370Z,35
2022-11-29T07:12:11.383Z,29
2022-11-29T07:13:11.388Z,31
2022-11-29T07:14:11.384Z,32
2022-11-29T07:15:11.388Z,32
2022-11-29T07:16:11.434Z,32
2022-11-29T07:17:11.432Z,33
2022-11-29T07:18:11.448Z,28
2022-11-29T07:19:11.375Z,30
2022-11-29T07:20:11.383Z,28
2022-11-29T07:21:11.380Z,31
2022-11-29T07:22:11.380Z,35
2022-11-29T07:23:11.387Z,33
2022-11-29T07:24:11.389Z,30
2022-11-29T07:25:11.367Z,29
2022-11-29T07:26:11.378Z,28
2022-11-29T07:27:11.373Z,30
2022-11-29T07:28:11.405Z,27
2022-11-29T07:29:11.380Z,30
2022-11-29T07:30:11.370Z,28
2022-11-29T07:31:11.411Z,31
2022-11-29T07:32:11.375Z,35
2022-11-29T07:33:11.375Z,28
2022-11-29T07:34:11.375Z,29
2022-11-29T07:35:11.417Z,31
2022-11-29T07:36:11.400Z,29
2022-11-29T07:37:11.397Z,27
2022-11-29T07:38:11.390Z,27
2022-11-29T07:39:11.393Z,27
2022-11-29T07:40:11.384Z,32
2022-11-29T07:41:11.383Z,27
2022-11-29T07:42:11.394Z,28
2022-11-29T07:43:11.401Z,31
2022-11-29T07:44:11.388Z,27
2022-11-29T07:45:11.385Z,28
2022-11-29T07:46:11.388Z,31
2022-11-29T07:47:11.435Z,30
2022-11-29T07:48:11.389Z,33
2022-11-29T07:49:11.379Z,33
2022-11-29T07:50:11.390Z,27
2022-11-29T07:51:11.395Z,28
2022-11-29T07:52:17.871Z,25
2022-11-29T07:53:11.386Z,31
2022-11-29T07:54:11.476Z,25
2022-11-29T07:55:17.099Z,27
2022-11-29T07:56:11.390Z,25
2022-11-29T07:57:11.395Z,31
2022-11-29T07:58:11.392Z,25
2022-11-29T07:59:11.419Z,31
2022-11-29T08:00:11.396Z,26
2022-11-29T08:01:11.446Z,27
2022-11-29T08:02:11.931Z,28
2022-11-29T08:04:11.399Z,32
2022-11-29T08:05:11.405Z,25
2022-11-29T08:06:11.407Z,25
2022-11-29T08:07:11.416Z,26
2022-11-29T08:08:11.391Z,28
2022-11-29T08:09:11.403Z,23
2022-11-29T08:10:11.398Z,24
2022-11-29T08:11:11.466Z,18
2022-11-29T08:12:11.406Z,10
2022-11-29T08:13:11.399Z,11
2022-11-29T08:14:11.390Z,8
2022-11-29T08:15:11.390Z,10
2022-11-29T08:16:11.412Z,11
2022-11-29T08:17:11.412Z,11
2022-11-29T08:18:11.406Z,11
2022-11-29T08:19:11.394Z,14
2022-11-29T08:20:11.390Z,13
2022-11-29T08:21:11.409Z,16
2022-11-29T08:22:11.393Z,20
2022-11-29T08:23:11.391Z,18
2022-11-29T08:24:11.392Z,23
2022-11-29T08:25:11.401Z,23
2022-11-29T08:26:11.513Z,22
2022-11-29T08:27:11.399Z,17
2022-11-29T08:28:11.404Z,18
2022-11-29T08:29:11.403Z,23
2022-11-29T08:30:11.446Z,21
2022-11-29T08:31:11.541Z,24
2022-11-29T08:32:11.405Z,22
2022-11-29T08:33:11.401Z,24
2022-11-29T08:34:11.395Z,22
2022-11-29T08:35:11.401Z,24
2022-11-29T08:36:11.411Z,21
2022-11-29T08:37:11.393Z,21
2022-11-29T08:38:11.407Z,26
2022-11-29T08:39:11.404Z,23
2022-11-29T08:40:11.418Z,22
2022-11-29T08:41:11.414Z,25
2022-11-29T08:42:11.408Z,24
2022-11-29T08:43:11.450Z,25
2022-11-29T08:44:11.412Z,22
2022-11-29T08:45:11.416Z,28
2022-11-29T08:46:17.953Z,26
2022-11-29T08:47:11.433Z,21
2022-11-29T08:48:11.494Z,22
2022-11-29T08:49:11.425Z,21
2022-11-29T08:50:11.410Z,29
2022-11-29T08:51:11.421Z,24
2022-11-29T08:53:11.426Z,28
2022-11-29T08:55:11.439Z,26
2022-11-29T08:56:49.348Z,25
2022-11-29T08:57:38.605Z,25
2022-11-29T08:58:11.398Z,25
2022-11-29T08:59:11.418Z,24
2022-11-29T09:00:11.431Z,28
2022-11-29T09:01:11.539Z,27
2022-11-29T09:02:11.429Z,29
2022-11-29T09:03:11.403Z,25
2022-11-29T09:04:11.410Z,23
2022-11-29T09:05:11.419Z,19
2022-11-29T09:06:12.757Z,27
2022-11-29T09:07:11.402Z,23
2022-11-29T09:08:11.406Z,26
2022-11-29T09:09:11.405Z,29
2022-11-29T09:10:11.425Z,27
2022-11-29T09:11:11.466Z,30
2022-11-29T09:12:11.467Z,28
2022-11-29T09:13:11.416Z,28
2022-11-29T09:14:11.409Z,29
2022-11-29T09:15:11.398Z,24
2022-11-29T09:16:11.472Z,23
2022-11-29T09:17:11.433Z,27
2022-11-29T09:18:11.425Z,29
2022-11-29T09:19:11.414Z,25
2022-11-29T09:20:11.444Z,25
2022-11-29T09:21:11.423Z,26
2022-11-29T09:22:11.423Z,25
2022-11-29T09:23:11.410Z,28
2022-11-29T09:24:11.414Z,30
2022-11-29T09:25:11.440Z,27
2022-11-29T09:26:11.421Z,28
2022-11-29T09:27:11.428Z,25
2022-11-29T09:28:11.432Z,28
2022-11-29T09:29:11.428Z,32
2022-11-29T09:30:11.424Z,29
2022-11-29T09:31:11.429Z,30
2022-11-29T09:32:11.452Z,27
2022-11-29T09:33:11.431Z,35
2022-11-29T09:34:11.465Z,32
2022-11-29T09:35:11.427Z,27
2022-11-29T09:36:11.432Z,30
2022-11-29T09:37:11.426Z,25
2022-11-29T09:38:11.427Z,30
2022-11-29T09:39:11.448Z,31
2022-11-29T09:40:11.440Z,33
2022-11-29T09:41:11.426Z,23
2022-11-29T09:42:11.422Z,32
2022-11-29T09:43:11.431Z,31
2022-11-29T09:44:11.427Z,31
2022-11-29T09:45:11.424Z,39
2022-11-29T09:46:11.474Z,36
2022-11-29T09:47:11.430Z,39
2022-11-29T09:48:11.432Z,29
2022-11-29T09:49:11.439Z,36
2022-11-29T09:50:11.443Z,28
2022-11-29T09:51:11.491Z,37
2022-11-29T09:52:11.436Z,34
2022-11-29T09:53:11.434Z,33
2022-11-29T09:54:11.445Z,37
2022-11-29T09:55:11.438Z,37
2022-11-29T09:56:11.456Z,36
2022-11-29T09:57:11.432Z,44
2022-11-29T09:58:11.453Z,35
2022-11-29T09:59:11.453Z,40
2022-11-29T10:00:11.426Z,37
2022-11-29T10:01:11.479Z,41
2022-11-29T10:02:11.526Z,41
2022-11-29T10:03:11.476Z,41
2022-11-29T10:04:11.438Z,39
2022-11-29T10:05:11.430Z,36
2022-11-29T10:06:11.465Z,42
2022-11-29T10:08:11.457Z,40
2022-11-29T10:09:11.478Z,46
2022-11-29T10:10:11.475Z,39
2022-11-29T10:11:11.460Z,40
2022-11-29T10:12:11.461Z,49
2022-11-29T10:13:11.434Z,43
2022-11-29T10:14:11.450Z,48
2022-11-29T10:15:11.453Z,43
2022-11-29T10:16:11.452Z,44
2022-11-29T10:17:11.425Z,48
2022-11-29T10:18:11.453Z,39
2022-11-29T10:19:11.436Z,45
2022-11-29T10:20:11.440Z,41
2022-11-29T10:21:11.433Z,39
2022-11-29T10:22:11.444Z,45
2022-11-29T10:23:11.437Z,51
2022-11-29T10:24:11.450Z,38
2022-11-29T10:25:11.498Z,48
2022-11-29T10:26:11.473Z,54
2022-11-29T10:27:11.433Z,49
2022-11-29T10:28:11.445Z,48
2022-11-29T10:29:11.435Z,49
2022-11-29T10:30:11.432Z,52
2022-11-29T10:31:11.503Z,51
2022-11-29T10:32:11.443Z,46
2022-11-29T10:33:11.466Z,51
2022-11-29T10:34:11.489Z,57
2022-11-29T10:35:11.476Z,48
2022-11-29T10:36:11.455Z,56
2022-11-29T10:37:11.454Z,51
2022-11-29T10:38:30.356Z,44
2022-11-29T10:39:14.409Z,49
2022-11-29T10:40:11.441Z,49
2022-11-29T10:41:11.460Z,46
2022-11-29T10:42:11.466Z,47
2022-11-29T10:43:11.452Z,52
2022-11-29T10:44:11.464Z,46
2022-11-29T10:45:11.469Z,50
2022-11-29T10:46:11.509Z,51
2022-11-29T10:47:11.467Z,49
2022-11-29T10:48:11.445Z,57
2022-11-29T10:49:11.440Z,53
2022-11-29T10:50:11.452Z,52
2022-11-29T10:51:11.481Z,44
2022-11-29T10:52:11.494Z,49
2022-11-29T10:53:11.452Z,52
2022-11-29T10:54:11.454Z,51
2022-11-29T10:55:11.474Z,47
2022-11-29T10:56:11.690Z,54
2022-11-29T10:57:11.457Z,53
2022-11-29T10:58:11.463Z,52
2022-11-29T10:59:11.459Z,54
2022-11-29T11:01:11.470Z,49
2022-11-29T11:02:11.439Z,52
2022-11-29T11:03:11.482Z,48
2022-11-29T11:04:11.518Z,45
2022-11-29T11:05:11.536Z,45
2022-11-29T11:06:11.481Z,44
2022-11-29T11:07:11.456Z,48
2022-11-29T11:08:11.457Z,47
2022-11-29T11:09:11.472Z,55
2022-11-29T11:10:11.487Z,43
2022-11-29T11:11:11.477Z,47
2022-11-29T11:12:11.489Z,48
2022-11-29T11:13:11.472Z,50
2022-11-29T11:14:11.468Z,48
2022-11-29T11:15:11.468Z,48
2022-11-29T11:16:11.473Z,49
2022-11-29T11:17:11.524Z,44
2022-11-29T11:18:11.473Z,45
2022-11-29T11:19:11.502Z,46
2022-11-29T11:20:11.468Z,48
2022-11-29T11:21:11.459Z,48
2022-11-29T11:22:11.476Z,41
2022-11-29T11:23:11.466Z,48
2022-11-29T11:24:11.458Z,48
2022-11-29T11:25:11.450Z,49
2022-11-29T11:26:11.471Z,43
2022-11-29T11:27:11.460Z,59
2022-11-29T11:28:11.453Z,53
2022-11-29T11:29:11.476Z,48
2022-11-29T11:30:11.455Z,47
2022-11-29T11:31:11.520Z,46
2022-11-29T11:32:11.461Z,39
2022-11-29T11:33:11.508Z,53
2022-11-29T11:34:11.504Z,43
2022-11-29T11:35:15.593Z,41
2022-11-29T11:36:11.506Z,41
2022-11-29T11:37:11.464Z,41
2022-11-29T11:38:11.461Z,45
2022-11-29T11:39:11.471Z,51
2022-11-29T11:40:11.517Z,43
2022-11-29T11:41:11.483Z,41
2022-11-29T11:42:11.469Z,45
2022-11-29T11:43:11.470Z,40
2022-11-29T11:44:15.268Z,46
2022-11-29T11:45:11.459Z,46
2022-11-29T11:46:15.216Z,47
2022-11-29T11:47:11.496Z,41
2022-11-29T11:48:11.465Z,38
2022-11-29T11:49:11.467Z,41
2022-11-29T11:50:11.501Z,41
2022-11-29T11:51:11.485Z,44
2022-11-29T11:52:11.488Z,47
2022-11-29T11:53:11.478Z,41
2022-11-29T11:54:11.482Z,41
2022-11-29T11:55:11.525Z,42
2022-11-29T11:56:11.486Z,40
2022-11-29T11:57:11.469Z,41
2022-11-29T11:58:11.462Z,40
2022-11-29T11:59:11.456Z,40
2022-11-29T12:00:11.482Z,38
2022-11-29T12:01:11.484Z,40
2022-11-29T12:02:11.546Z,43
2022-11-29T12:03:11.652Z,44
2022-11-29T12:04:11.495Z,43
2022-11-29T12:05:11.528Z,43
2022-11-29T12:06:11.495Z,37
2022-11-29T12:07:11.516Z,41
2022-11-29T12:08:11.587Z,38
2022-11-29T12:09:11.468Z,41
2022-11-29T12:10:11.492Z,40
2022-11-29T12:12:11.487Z,44
2022-11-29T12:13:11.474Z,42
2022-11-29T12:14:11.476Z,45
2022-11-29T12:15:11.466Z,45
2022-11-29T12:16:11.493Z,39
2022-11-29T12:17:14.331Z,44
2022-11-29T12:18:11.481Z,38
2022-11-29T12:19:11.480Z,39
2022-11-29T12:20:11.590Z,45
2022-11-29T12:21:11.490Z,44
2022-11-29T12:22:11.490Z,44
2022-11-29T12:23:11.500Z,42
2022-11-29T12:24:11.512Z,41
2022-11-29T12:25:11.467Z,42
2022-11-29T12:26:13.691Z,47
2022-11-29T12:27:11.532Z,43
2022-11-29T12:28:12.027Z,42
2022-11-29T12:29:11.521Z,36
2022-11-29T12:30:11.485Z,40
2022-11-29T12:31:11.576Z,48
2022-11-29T12:32:11.494Z,39
2022-11-29T12:33:11.500Z,38
2022-11-29T12:34:11.488Z,45
2022-11-29T12:35:17.411Z,44
2022-11-29T12:36:11.492Z,40
2022-11-29T12:37:11.496Z,40
2022-11-29T12:38:11.515Z,39
2022-11-29T12:39:11.511Z,39
2022-11-29T12:40:11.487Z,47
2022-11-29T12:41:11.501Z,46
2022-11-29T12:42:11.491Z,41
2022-11-29T12:43:11.479Z,44
2022-11-29T12:44:11.486Z,41
2022-11-29T12:45:11.482Z,39
2022-11-29T12:46:11.579Z,38
2022-11-29T12:47:35.172Z,42
2022-11-29T12:48:11.505Z,38
2022-11-29T12:49:11.500Z,37
2022-11-29T12:50:11.492Z,34
2022-11-29T12:51:11.495Z,39
2022-11-29T12:52:11.490Z,38
2022-11-29T12:53:11.498Z,38
2022-11-29T12:54:11.493Z,44
2022-11-29T12:55:11.497Z,45
2022-11-29T12:56:11.504Z,40
2022-11-29T12:57:11.501Z,40
2022-11-29T12:58:11.545Z,42
2022-11-29T12:59:11.489Z,40
2022-11-29T13:00:11.500Z,35
2022-11-29T13:01:11.502Z,38
2022-11-29T13:02:11.487Z,40
2022-11-29T13:03:11.586Z,40
2022-11-29T13:04:11.487Z,38
2022-11-29T13:05:11.495Z,37
2022-11-29T13:06:11.484Z,36
2022-11-29T13:07:11.491Z,38
2022-11-29T13:08:11.493Z,43
2022-11-29T13:09:11.526Z,39
2022-11-29T13:10:17.711Z,38
2022-11-29T13:11:11.508Z,41
2022-11-29T13:12:11.510Z,35
2022-11-29T13:13:11.493Z,38
2022-11-29T13:14:40.805Z,39
2022-11-29T13:15:11.500Z,43
2022-11-29T13:16:14.713Z,43
2022-11-29T13:17:11.493Z,37
2022-11-29T13:18:11.508Z,35
2022-11-29T13:20:11.519Z,38
2022-11-29T13:21:11.515Z,37
2022-11-29T13:22:11.523Z,42
2022-11-29T13:23:11.492Z,34
2022-11-29T13:24:11.502Z,45
2022-11-29T13:25:11.510Z,41
2022-11-29T13:26:11.549Z,43
2022-11-29T13:27:11.563Z,42
2022-11-29T13:28:11.543Z,38
2022-11-29T13:29:11.496Z,38
2022-11-29T13:30:11.525Z,44
2022-11-29T13:31:11.594Z,41
2022-11-29T13:32:14.627Z,38
2022-11-29T13:33:11.522Z,39
2022-11-29T13:34:11.518Z,39
2022-11-29T13:35:11.516Z,38
2022-11-29T13:36:11.509Z,38
2022-11-29T13:37:11.520Z,39
2022-11-29T13:38:11.525Z,37
2022-11-29T13:39:11.501Z,41
2022-11-29T13:40:11.519Z,35
2022-11-29T13:41:11.519Z,40
2022-11-29T13:43:11.499Z,34
2022-11-29T13:44:11.540Z,38
2022-11-29T13:45:11.510Z,39
2022-11-29T13:46:11.544Z,36
2022-11-29T13:47:11.507Z,37
2022-11-29T13:48:11.503Z,43
2022-11-29T13:49:11.541Z,36
2022-11-29T13:50:11.512Z,39
2022-11-29T13:51:11.499Z,33
2022-11-29T13:52:11.541Z,40
2022-11-29T13:53:11.505Z,44
2022-11-29T13:54:11.498Z,42
2022-11-29T13:55:11.538Z,35
2022-11-29T13:56:11.510Z,41
2022-11-29T13:57:11.512Z,35
2022-11-29T13:58:19.001Z,37
2022-11-29T13:59:11.504Z,34
2022-11-29T14:00:11.505Z,37
2022-11-29T14:01:11.510Z,35
2022-11-29T14:02:11.538Z,39
2022-11-29T14:03:11.562Z,36
2022-11-29T14:04:11.517Z,35
2022-11-29T14:05:11.518Z,39
2022-11-29T14:06:11.505Z,39
2022-11-29T14:07:11.512Z,37
2022-11-29T14:08:15.221Z,34
2022-11-29T14:09:19.026Z,32
2022-11-29T14:10:11.527Z,31
2022-11-29T14:11:11.599Z,41
2022-11-29T14:12:11.526Z,37
2022-11-29T14:13:11.528Z,35
2022-11-29T14:14:11.520Z,32
2022-11-29T14:15:11.528Z,33
2022-11-29T14:16:11.587Z,32
2022-11-29T14:17:11.526Z,35
2022-11-29T14:18:11.570Z,34
2022-11-29T14:19:11.529Z,30
2022-11-29T14:20:11.513Z,29
2022-11-29T14:21:11.531Z,29
2022-11-29T14:22:11.528Z,30
2022-11-29T14:23:11.513Z,29
2022-11-29T14:24:11.512Z,28
2022-11-29T14:25:35.024Z,32
2022-11-29T14:26:11.522Z,28
2022-11-29T14:27:11.542Z,30
2022-11-29T14:28:11.525Z,30
2022-11-29T14:29:11.528Z,32
2022-11-29T14:30:11.532Z,27
2022-11-29T14:31:11.620Z,29
2022-11-29T14:32:11.525Z,32
2022-11-29T14:33:11.531Z,31
2022-11-29T14:34:11.541Z,29
2022-11-29T14:35:11.527Z,32